sensor_id;sensor_type;location;lat;lon;timestamp;P1;durP1;ratioP1;P2;durP2;ratioP2
14251;SDS011;7210;51.502;10.722;2023-02-22T00:00:42;13.93;;;9.70;;
14251;SDS011;7210;51.502;10.722;2023-02-22T00:03:13;15.97;;;9.57;;
14251;SDS011;7210;51.502;10.722;2023-02-22T00:05:44;14.20;;;9.77;;
14251;SDS011;7210;51.502;10.722;2023-02-22T00:08:12;13.73;;;9.00;;
14251;SDS011;7210;51.502;10.722;2023-02-22T00:10:42;15.10;;;9.30;;
14251;SDS011;7210;51.502;10.722;2023-02-22T00:13:11;15.53;;;9.73;;
14251;SDS011;7210;51.502;10.722;2023-02-22T00:15:39;13.03;;;9.77;;
14251;SDS011;7210;51.502;10.722;2023-02-22T00:18:07;13.27;;;9.63;;
14251;SDS011;7210;51.502;10.722;2023-02-22T00:20:35;12.23;;;8.70;;
14251;SDS011;7210;51.502;10.722;2023-02-22T00:23:04;11.97;;;8.73;;
14251;SDS011;7210;51.502;10.722;2023-02-22T00:25:33;12.17;;;9.23;;
14251;SDS011;7210;51.502;10.722;2023-02-22T00:28:03;13.20;;;8.50;;
14251;SDS011;7210;51.502;10.722;2023-02-22T00:30:31;16.47;;;10.60;;
14251;SDS011;7210;51.502;10.722;2023-02-22T00:32:58;14.70;;;10.13;;
14251;SDS011;7210;51.502;10.722;2023-02-22T00:35:27;15.57;;;10.00;;
14251;SDS011;7210;51.502;10.722;2023-02-22T00:37:56;15.03;;;10.07;;
14251;SDS011;7210;51.502;10.722;2023-02-22T00:40:27;15.30;;;10.30;;
14251;SDS011;7210;51.502;10.722;2023-02-22T00:42:56;14.57;;;9.50;;
14251;SDS011;7210;51.502;10.722;2023-02-22T00:45:27;16.03;;;10.20;;
14251;SDS011;7210;51.502;10.722;2023-02-22T00:47:56;15.30;;;9.60;;
14251;SDS011;7210;51.502;10.722;2023-02-22T00:50:25;14.97;;;9.87;;
14251;SDS011;7210;51.502;10.722;2023-02-22T00:52:58;15.23;;;10.27;;
14251;SDS011;7210;51.502;10.722;2023-02-22T00:55:28;14.33;;;10.27;;
14251;SDS011;7210;51.502;10.722;2023-02-22T00:57:58;14.97;;;10.03;;
14251;SDS011;7210;51.502;10.722;2023-02-22T01:00:29;17.23;;;10.20;;
14251;SDS011;7210;51.502;10.722;2023-02-22T01:03:00;17.07;;;10.30;;
14251;SDS011;7210;51.502;10.722;2023-02-22T01:05:29;15.23;;;10.20;;
14251;SDS011;7210;51.502;10.722;2023-02-22T01:07:58;14.73;;;10.13;;
14251;SDS011;7210;51.502;10.722;2023-02-22T01:10:31;15.37;;;9.80;;
14251;SDS011;7210;51.502;10.722;2023-02-22T01:12:59;16.03;;;10.37;;
14251;SDS011;7210;51.502;10.722;2023-02-22T01:15:31;17.43;;;11.43;;
14251;SDS011;7210;51.502;10.722;2023-02-22T01:17:58;16.77;;;10.73;;
14251;SDS011;7210;51.502;10.722;2023-02-22T01:20:26;17.67;;;11.07;;
14251;SDS011;7210;51.502;10.722;2023-02-22T01:22:56;15.63;;;11.13;;
14251;SDS011;7210;51.502;10.722;2023-02-22T01:25:28;17.60;;;10.70;;
14251;SDS011;7210;51.502;10.722;2023-02-22T01:27:57;16.40;;;10.63;;
14251;SDS011;7210;51.502;10.722;2023-02-22T01:30:27;14.00;;;10.13;;
14251;SDS011;7210;51.502;10.722;2023-02-22T01:32:59;15.83;;;10.60;;
14251;SDS011;7210;51.502;10.722;2023-02-22T01:35:29;16.07;;;9.87;;
14251;SDS011;7210;51.502;10.722;2023-02-22T01:38:00;13.60;;;10.00;;
14251;SDS011;7210;51.502;10.722;2023-02-22T01:40:28;16.50;;;10.30;;
14251;SDS011;7210;51.502;10.722;2023-02-22T01:42:59;15.00;;;10.13;;
14251;SDS011;7210;51.502;10.722;2023-02-22T01:45:48;16.57;;;10.60;;
14251;SDS011;7210;51.502;10.722;2023-02-22T01:48:23;17.37;;;11.23;;
14251;SDS011;7210;51.502;10.722;2023-02-22T01:51:12;15.10;;;10.20;;
14251;SDS011;7210;51.502;10.722;2023-02-22T01:53:44;16.77;;;10.43;;
14251;SDS011;7210;51.502;10.722;2023-02-22T01:56:18;15.23;;;9.87;;
14251;SDS011;7210;51.502;10.722;2023-02-22T01:58:47;15.53;;;9.70;;
14251;SDS011;7210;51.502;10.722;2023-02-22T02:01:21;14.90;;;10.00;;
14251;SDS011;7210;51.502;10.722;2023-02-22T02:03:51;15.40;;;10.53;;
14251;SDS011;7210;51.502;10.722;2023-02-22T02:06:24;17.63;;;10.67;;
14251;SDS011;7210;51.502;10.722;2023-02-22T02:08:59;12.87;;;9.67;;
14251;SDS011;7210;51.502;10.722;2023-02-22T02:11:37;14.77;;;10.37;;
14251;SDS011;7210;51.502;10.722;2023-02-22T02:14:07;15.73;;;10.13;;
14251;SDS011;7210;51.502;10.722;2023-02-22T02:16:39;19.43;;;10.83;;
14251;SDS011;7210;51.502;10.722;2023-02-22T02:19:09;18.23;;;11.07;;
14251;SDS011;7210;51.502;10.722;2023-02-22T02:25:07;14.97;;;10.10;;
14251;SDS011;7210;51.502;10.722;2023-02-22T02:32:19;14.13;;;9.73;;
14251;SDS011;7210;51.502;10.722;2023-02-22T02:34:57;14.57;;;10.37;;
14251;SDS011;7210;51.502;10.722;2023-02-22T02:37:41;14.90;;;9.33;;
14251;SDS011;7210;51.502;10.722;2023-02-22T02:40:19;15.83;;;9.37;;
14251;SDS011;7210;51.502;10.722;2023-02-22T02:42:54;16.33;;;9.47;;
14251;SDS011;7210;51.502;10.722;2023-02-22T02:45:32;12.93;;;8.50;;
14251;SDS011;7210;51.502;10.722;2023-02-22T02:48:08;15.07;;;8.87;;
14251;SDS011;7210;51.502;10.722;2023-02-22T02:50:43;14.03;;;9.83;;
14251;SDS011;7210;51.502;10.722;2023-02-22T02:53:14;11.63;;;8.67;;
14251;SDS011;7210;51.502;10.722;2023-02-22T02:55:48;15.03;;;9.83;;
14251;SDS011;7210;51.502;10.722;2023-02-22T02:58:16;16.37;;;10.00;;
14251;SDS011;7210;51.502;10.722;2023-02-22T03:00:46;11.70;;;8.23;;
14251;SDS011;7210;51.502;10.722;2023-02-22T03:06:15;16.93;;;8.83;;
14251;SDS011;7210;51.502;10.722;2023-02-22T03:09:16;16.13;;;9.50;;
14251;SDS011;7210;51.502;10.722;2023-02-22T03:12:01;13.37;;;8.90;;
14251;SDS011;7210;51.502;10.722;2023-02-22T03:17:40;13.43;;;8.73;;
14251;SDS011;7210;51.502;10.722;2023-02-22T03:20:19;12.73;;;8.23;;
14251;SDS011;7210;51.502;10.722;2023-02-22T03:23:00;14.13;;;9.37;;
14251;SDS011;7210;51.502;10.722;2023-02-22T03:25:39;15.87;;;9.97;;
14251;SDS011;7210;51.502;10.722;2023-02-22T03:28:14;16.87;;;10.50;;
14251;SDS011;7210;51.502;10.722;2023-02-22T03:30:48;15.10;;;10.20;;
14251;SDS011;7210;51.502;10.722;2023-02-22T03:33:22;17.50;;;10.60;;
14251;SDS011;7210;51.502;10.722;2023-02-22T03:36:02;16.37;;;10.50;;
14251;SDS011;7210;51.502;10.722;2023-02-22T03:38:39;16.03;;;11.37;;
14251;SDS011;7210;51.502;10.722;2023-02-22T03:41:12;19.63;;;13.00;;
14251;SDS011;7210;51.502;10.722;2023-02-22T03:43:48;21.17;;;12.27;;
14251;SDS011;7210;51.502;10.722;2023-02-22T03:46:22;19.07;;;11.43;;
14251;SDS011;7210;51.502;10.722;2023-02-22T03:48:54;19.93;;;12.53;;
14251;SDS011;7210;51.502;10.722;2023-02-22T03:51:32;18.37;;;12.73;;
14251;SDS011;7210;51.502;10.722;2023-02-22T03:54:02;20.20;;;12.63;;
14251;SDS011;7210;51.502;10.722;2023-02-22T03:56:36;22.60;;;13.13;;
14251;SDS011;7210;51.502;10.722;2023-02-22T03:59:17;18.03;;;12.10;;
14251;SDS011;7210;51.502;10.722;2023-02-22T04:01:50;17.03;;;11.00;;
14251;SDS011;7210;51.502;10.722;2023-02-22T04:04:17;16.83;;;10.77;;
14251;SDS011;7210;51.502;10.722;2023-02-22T04:06:48;18.23;;;11.77;;
14251;SDS011;7210;51.502;10.722;2023-02-22T04:09:18;19.37;;;13.03;;
14251;SDS011;7210;51.502;10.722;2023-02-22T04:11:46;22.13;;;13.13;;
14251;SDS011;7210;51.502;10.722;2023-02-22T04:14:14;19.07;;;12.83;;
14251;SDS011;7210;51.502;10.722;2023-02-22T04:16:46;17.47;;;11.17;;
14251;SDS011;7210;51.502;10.722;2023-02-22T04:19:13;16.93;;;10.97;;
14251;SDS011;7210;51.502;10.722;2023-02-22T04:21:40;16.77;;;11.00;;
14251;SDS011;7210;51.502;10.722;2023-02-22T04:24:14;19.87;;;11.80;;
14251;SDS011;7210;51.502;10.722;2023-02-22T04:26:43;20.40;;;11.60;;
14251;SDS011;7210;51.502;10.722;2023-02-22T04:29:10;18.67;;;11.20;;
14251;SDS011;7210;51.502;10.722;2023-02-22T04:31:39;17.50;;;11.47;;
14251;SDS011;7210;51.502;10.722;2023-02-22T04:34:08;18.50;;;11.87;;
14251;SDS011;7210;51.502;10.722;2023-02-22T04:36:38;21.23;;;13.03;;
14251;SDS011;7210;51.502;10.722;2023-02-22T04:39:06;19.37;;;11.73;;
14251;SDS011;7210;51.502;10.722;2023-02-22T04:41:33;18.27;;;11.83;;
14251;SDS011;7210;51.502;10.722;2023-02-22T04:44:03;18.67;;;11.40;;
14251;SDS011;7210;51.502;10.722;2023-02-22T04:46:31;21.37;;;12.27;;
14251;SDS011;7210;51.502;10.722;2023-02-22T04:48:59;18.13;;;12.97;;
14251;SDS011;7210;51.502;10.722;2023-02-22T04:51:29;18.80;;;12.43;;
14251;SDS011;7210;51.502;10.722;2023-02-22T04:54:09;18.43;;;11.47;;
14251;SDS011;7210;51.502;10.722;2023-02-22T04:56:40;20.03;;;11.63;;
14251;SDS011;7210;51.502;10.722;2023-02-22T04:59:09;19.13;;;11.40;;
14251;SDS011;7210;51.502;10.722;2023-02-22T05:01:40;20.27;;;12.03;;
14251;SDS011;7210;51.502;10.722;2023-02-22T05:04:07;21.37;;;12.43;;
14251;SDS011;7210;51.502;10.722;2023-02-22T05:06:34;21.93;;;11.87;;
14251;SDS011;7210;51.502;10.722;2023-02-22T05:09:02;21.60;;;12.13;;
14251;SDS011;7210;51.502;10.722;2023-02-22T05:11:29;17.30;;;11.77;;
14251;SDS011;7210;51.502;10.722;2023-02-22T05:13:56;20.83;;;12.37;;
14251;SDS011;7210;51.502;10.722;2023-02-22T05:16:25;20.10;;;13.10;;
14251;SDS011;7210;51.502;10.722;2023-02-22T05:18:52;24.07;;;13.40;;
14251;SDS011;7210;51.502;10.722;2023-02-22T05:21:19;18.57;;;12.73;;
14251;SDS011;7210;51.502;10.722;2023-02-22T05:23:46;15.53;;;11.17;;
14251;SDS011;7210;51.502;10.722;2023-02-22T05:26:14;16.60;;;12.03;;
14251;SDS011;7210;51.502;10.722;2023-02-22T05:28:41;18.27;;;11.57;;
14251;SDS011;7210;51.502;10.722;2023-02-22T05:31:08;16.87;;;11.30;;
14251;SDS011;7210;51.502;10.722;2023-02-22T05:33:37;17.10;;;11.07;;
14251;SDS011;7210;51.502;10.722;2023-02-22T05:36:04;19.80;;;12.00;;
14251;SDS011;7210;51.502;10.722;2023-02-22T05:38:33;18.13;;;10.40;;
14251;SDS011;7210;51.502;10.722;2023-02-22T05:41:07;16.60;;;10.77;;
14251;SDS011;7210;51.502;10.722;2023-02-22T05:43:35;15.40;;;10.23;;
14251;SDS011;7210;51.502;10.722;2023-02-22T05:46:04;17.10;;;10.40;;
14251;SDS011;7210;51.502;10.722;2023-02-22T05:48:31;13.60;;;9.93;;
14251;SDS011;7210;51.502;10.722;2023-02-22T05:51:00;14.87;;;9.03;;
14251;SDS011;7210;51.502;10.722;2023-02-22T05:53:34;15.97;;;9.73;;
14251;SDS011;7210;51.502;10.722;2023-02-22T05:56:01;13.47;;;8.87;;
14251;SDS011;7210;51.502;10.722;2023-02-22T05:58:30;12.80;;;8.23;;
14251;SDS011;7210;51.502;10.722;2023-02-22T06:00:57;15.37;;;9.10;;
14251;SDS011;7210;51.502;10.722;2023-02-22T06:03:24;16.40;;;9.97;;
14251;SDS011;7210;51.502;10.722;2023-02-22T06:05:51;13.47;;;8.43;;
14251;SDS011;7210;51.502;10.722;2023-02-22T06:08:20;14.97;;;9.23;;
14251;SDS011;7210;51.502;10.722;2023-02-22T06:10:47;18.63;;;9.63;;
14251;SDS011;7210;51.502;10.722;2023-02-22T06:13:14;16.70;;;10.73;;
14251;SDS011;7210;51.502;10.722;2023-02-22T06:15:41;19.63;;;10.53;;
14251;SDS011;7210;51.502;10.722;2023-02-22T06:18:10;18.07;;;10.23;;
14251;SDS011;7210;51.502;10.722;2023-02-22T06:20:37;16.90;;;9.53;;
14251;SDS011;7210;51.502;10.722;2023-02-22T06:23:04;17.30;;;10.00;;
14251;SDS011;7210;51.502;10.722;2023-02-22T06:25:32;18.37;;;10.03;;
14251;SDS011;7210;51.502;10.722;2023-02-22T06:28:00;13.00;;;9.47;;
14251;SDS011;7210;51.502;10.722;2023-02-22T06:30:28;15.80;;;10.27;;
14251;SDS011;7210;51.502;10.722;2023-02-22T06:32:56;16.80;;;10.23;;
14251;SDS011;7210;51.502;10.722;2023-02-22T06:35:23;14.73;;;9.27;;
14251;SDS011;7210;51.502;10.722;2023-02-22T06:37:51;14.90;;;9.03;;
14251;SDS011;7210;51.502;10.722;2023-02-22T06:40:18;15.17;;;8.67;;
14251;SDS011;7210;51.502;10.722;2023-02-22T06:42:47;13.77;;;9.30;;
14251;SDS011;7210;51.502;10.722;2023-02-22T06:45:15;13.13;;;9.13;;
14251;SDS011;7210;51.502;10.722;2023-02-22T06:47:43;17.90;;;10.50;;
14251;SDS011;7210;51.502;10.722;2023-02-22T06:50:17;17.30;;;11.10;;
14251;SDS011;7210;51.502;10.722;2023-02-22T06:52:48;16.40;;;11.00;;
14251;SDS011;7210;51.502;10.722;2023-02-22T06:55:16;19.37;;;10.70;;
14251;SDS011;7210;51.502;10.722;2023-02-22T06:57:45;19.07;;;10.33;;
14251;SDS011;7210;51.502;10.722;2023-02-22T07:00:15;16.87;;;9.90;;
14251;SDS011;7210;51.502;10.722;2023-02-22T07:02:45;15.00;;;10.03;;
14251;SDS011;7210;51.502;10.722;2023-02-22T07:05:14;18.83;;;12.67;;
14251;SDS011;7210;51.502;10.722;2023-02-22T07:07:43;20.90;;;14.30;;
14251;SDS011;7210;51.502;10.722;2023-02-22T07:10:16;19.73;;;11.33;;
14251;SDS011;7210;51.502;10.722;2023-02-22T07:12:49;18.87;;;10.63;;
14251;SDS011;7210;51.502;10.722;2023-02-22T07:15:23;17.33;;;11.30;;
14251;SDS011;7210;51.502;10.722;2023-02-22T07:17:53;18.20;;;11.47;;
14251;SDS011;7210;51.502;10.722;2023-02-22T07:20:21;20.20;;;11.73;;
14251;SDS011;7210;51.502;10.722;2023-02-22T07:22:50;13.30;;;9.07;;
14251;SDS011;7210;51.502;10.722;2023-02-22T07:25:19;14.07;;;9.63;;
14251;SDS011;7210;51.502;10.722;2023-02-22T07:27:50;16.93;;;9.83;;
14251;SDS011;7210;51.502;10.722;2023-02-22T07:30:18;15.77;;;9.70;;
14251;SDS011;7210;51.502;10.722;2023-02-22T07:32:50;14.97;;;9.63;;
14251;SDS011;7210;51.502;10.722;2023-02-22T07:35:20;15.90;;;10.23;;
14251;SDS011;7210;51.502;10.722;2023-02-22T07:37:50;15.47;;;10.53;;
14251;SDS011;7210;51.502;10.722;2023-02-22T07:40:18;18.30;;;11.43;;
14251;SDS011;7210;51.502;10.722;2023-02-22T07:42:52;18.33;;;11.23;;
14251;SDS011;7210;51.502;10.722;2023-02-22T07:45:24;18.37;;;13.00;;
14251;SDS011;7210;51.502;10.722;2023-02-22T07:47:53;18.37;;;11.97;;
14251;SDS011;7210;51.502;10.722;2023-02-22T07:50:21;21.60;;;13.27;;
14251;SDS011;7210;51.502;10.722;2023-02-22T07:52:50;29.13;;;14.43;;
14251;SDS011;7210;51.502;10.722;2023-02-22T07:55:20;21.73;;;14.40;;
14251;SDS011;7210;51.502;10.722;2023-02-22T07:57:52;20.23;;;13.37;;
14251;SDS011;7210;51.502;10.722;2023-02-22T08:00:23;24.87;;;14.37;;
14251;SDS011;7210;51.502;10.722;2023-02-22T08:02:52;25.20;;;14.87;;
14251;SDS011;7210;51.502;10.722;2023-02-22T08:05:22;22.13;;;13.83;;
14251;SDS011;7210;51.502;10.722;2023-02-22T08:07:51;21.53;;;14.07;;
14251;SDS011;7210;51.502;10.722;2023-02-22T08:10:20;20.90;;;14.40;;
14251;SDS011;7210;51.502;10.722;2023-02-22T08:12:52;23.37;;;15.30;;
14251;SDS011;7210;51.502;10.722;2023-02-22T08:15:23;24.67;;;14.73;;
14251;SDS011;7210;51.502;10.722;2023-02-22T08:17:54;23.47;;;15.17;;
14251;SDS011;7210;51.502;10.722;2023-02-22T08:20:22;22.93;;;14.53;;
14251;SDS011;7210;51.502;10.722;2023-02-22T08:22:49;22.57;;;14.63;;
14251;SDS011;7210;51.502;10.722;2023-02-22T08:25:17;23.97;;;14.83;;
14251;SDS011;7210;51.502;10.722;2023-02-22T08:27:46;22.87;;;15.03;;
14251;SDS011;7210;51.502;10.722;2023-02-22T08:30:16;25.40;;;15.70;;
14251;SDS011;7210;51.502;10.722;2023-02-22T08:32:46;23.33;;;14.00;;
14251;SDS011;7210;51.502;10.722;2023-02-22T08:35:15;24.90;;;15.27;;
14251;SDS011;7210;51.502;10.722;2023-02-22T08:37:45;24.43;;;14.83;;
14251;SDS011;7210;51.502;10.722;2023-02-22T08:40:14;21.63;;;13.97;;
14251;SDS011;7210;51.502;10.722;2023-02-22T08:42:44;28.03;;;15.83;;
14251;SDS011;7210;51.502;10.722;2023-02-22T08:45:11;22.70;;;14.63;;
14251;SDS011;7210;51.502;10.722;2023-02-22T08:47:40;24.63;;;14.53;;
14251;SDS011;7210;51.502;10.722;2023-02-22T08:50:08;20.77;;;14.03;;
14251;SDS011;7210;51.502;10.722;2023-02-22T08:52:42;23.37;;;13.33;;
14251;SDS011;7210;51.502;10.722;2023-02-22T08:55:09;22.10;;;13.33;;
14251;SDS011;7210;51.502;10.722;2023-02-22T08:57:36;20.67;;;12.93;;
14251;SDS011;7210;51.502;10.722;2023-02-22T09:00:04;21.50;;;12.83;;
14251;SDS011;7210;51.502;10.722;2023-02-22T09:02:32;22.20;;;12.47;;
14251;SDS011;7210;51.502;10.722;2023-02-22T09:05:01;20.47;;;12.40;;
14251;SDS011;7210;51.502;10.722;2023-02-22T09:07:30;19.17;;;12.60;;
14251;SDS011;7210;51.502;10.722;2023-02-22T09:09:57;20.00;;;12.00;;
14251;SDS011;7210;51.502;10.722;2023-02-22T09:12:24;21.47;;;12.50;;
14251;SDS011;7210;51.502;10.722;2023-02-22T09:14:51;20.10;;;11.67;;
14251;SDS011;7210;51.502;10.722;2023-02-22T09:17:19;16.67;;;10.97;;
14251;SDS011;7210;51.502;10.722;2023-02-22T09:19:46;17.63;;;11.33;;
14251;SDS011;7210;51.502;10.722;2023-02-22T09:22:14;21.47;;;12.17;;
14251;SDS011;7210;51.502;10.722;2023-02-22T09:24:41;19.77;;;11.40;;
14251;SDS011;7210;51.502;10.722;2023-02-22T09:27:09;20.77;;;12.33;;
14251;SDS011;7210;51.502;10.722;2023-02-22T09:29:36;17.23;;;11.63;;
14251;SDS011;7210;51.502;10.722;2023-02-22T09:32:04;20.20;;;12.17;;
14251;SDS011;7210;51.502;10.722;2023-02-22T09:34:31;17.60;;;11.23;;
14251;SDS011;7210;51.502;10.722;2023-02-22T09:36:59;16.20;;;11.27;;
14251;SDS011;7210;51.502;10.722;2023-02-22T09:39:30;19.70;;;11.50;;
14251;SDS011;7210;51.502;10.722;2023-02-22T09:42:02;19.83;;;11.50;;
14251;SDS011;7210;51.502;10.722;2023-02-22T09:44:41;16.67;;;11.23;;
14251;SDS011;7210;51.502;10.722;2023-02-22T09:47:18;16.37;;;11.37;;
14251;SDS011;7210;51.502;10.722;2023-02-22T09:49:57;17.57;;;11.97;;
14251;SDS011;7210;51.502;10.722;2023-02-22T09:52:30;16.43;;;11.33;;
14251;SDS011;7210;51.502;10.722;2023-02-22T09:55:06;16.33;;;11.70;;
14251;SDS011;7210;51.502;10.722;2023-02-22T09:57:49;15.70;;;10.73;;
14251;SDS011;7210;51.502;10.722;2023-02-22T10:00:20;13.47;;;10.30;;
14251;SDS011;7210;51.502;10.722;2023-02-22T10:02:56;14.40;;;11.00;;
14251;SDS011;7210;51.502;10.722;2023-02-22T10:05:43;17.37;;;10.80;;
14251;SDS011;7210;51.502;10.722;2023-02-22T10:08:18;14.57;;;10.57;;
14251;SDS011;7210;51.502;10.722;2023-02-22T10:10:50;16.80;;;11.43;;
14251;SDS011;7210;51.502;10.722;2023-02-22T10:13:27;13.70;;;10.70;;
14251;SDS011;7210;51.502;10.722;2023-02-22T10:16:10;15.20;;;10.60;;
14251;SDS011;7210;51.502;10.722;2023-02-22T10:18:59;15.17;;;10.33;;
14251;SDS011;7210;51.502;10.722;2023-02-22T10:21:59;14.03;;;10.50;;
14251;SDS011;7210;51.502;10.722;2023-02-22T10:24:50;14.77;;;10.97;;
14251;SDS011;7210;51.502;10.722;2023-02-22T10:27:28;14.17;;;10.60;;
14251;SDS011;7210;51.502;10.722;2023-02-22T10:30:04;15.37;;;10.77;;
14251;SDS011;7210;51.502;10.722;2023-02-22T10:32:57;18.43;;;10.13;;
14251;SDS011;7210;51.502;10.722;2023-02-22T10:35:35;14.47;;;10.43;;
14251;SDS011;7210;51.502;10.722;2023-02-22T10:38:09;15.40;;;11.10;;
14251;SDS011;7210;51.502;10.722;2023-02-22T10:40:45;19.17;;;11.87;;
14251;SDS011;7210;51.502;10.722;2023-02-22T10:43:20;16.73;;;11.53;;
14251;SDS011;7210;51.502;10.722;2023-02-22T10:45:50;14.20;;;11.13;;
14251;SDS011;7210;51.502;10.722;2023-02-22T10:48:22;16.50;;;11.77;;
14251;SDS011;7210;51.502;10.722;2023-02-22T10:50:56;15.30;;;11.57;;
14251;SDS011;7210;51.502;10.722;2023-02-22T10:53:27;17.17;;;11.17;;
14251;SDS011;7210;51.502;10.722;2023-02-22T10:56:08;16.00;;;10.67;;
14251;SDS011;7210;51.502;10.722;2023-02-22T10:58:45;15.83;;;11.27;;
14251;SDS011;7210;51.502;10.722;2023-02-22T11:01:19;14.83;;;11.00;;
14251;SDS011;7210;51.502;10.722;2023-02-22T11:06:42;15.90;;;11.63;;
14251;SDS011;7210;51.502;10.722;2023-02-22T11:09:13;17.27;;;11.47;;
14251;SDS011;7210;51.502;10.722;2023-02-22T11:11:43;16.23;;;11.20;;
14251;SDS011;7210;51.502;10.722;2023-02-22T11:14:23;12.50;;;10.37;;
14251;SDS011;7210;51.502;10.722;2023-02-22T11:16:54;14.77;;;10.70;;
14251;SDS011;7210;51.502;10.722;2023-02-22T11:19:24;12.83;;;10.50;;
14251;SDS011;7210;51.502;10.722;2023-02-22T11:21:59;14.07;;;11.17;;
14251;SDS011;7210;51.502;10.722;2023-02-22T11:24:43;14.60;;;10.90;;
14251;SDS011;7210;51.502;10.722;2023-02-22T11:30:09;13.80;;;11.00;;
14251;SDS011;7210;51.502;10.722;2023-02-22T11:32:51;13.73;;;10.37;;
14251;SDS011;7210;51.502;10.722;2023-02-22T11:35:29;15.13;;;11.03;;
14251;SDS011;7210;51.502;10.722;2023-02-22T11:38:10;14.47;;;10.80;;
14251;SDS011;7210;51.502;10.722;2023-02-22T11:40:43;13.23;;;10.93;;
14251;SDS011;7210;51.502;10.722;2023-02-22T11:43:14;14.47;;;10.43;;
14251;SDS011;7210;51.502;10.722;2023-02-22T11:45:58;12.70;;;10.63;;
14251;SDS011;7210;51.502;10.722;2023-02-22T11:48:29;11.30;;;9.73;;
14251;SDS011;7210;51.502;10.722;2023-02-22T11:51:06;13.50;;;10.40;;
14251;SDS011;7210;51.502;10.722;2023-02-22T11:57:22;13.40;;;10.43;;
14251;SDS011;7210;51.502;10.722;2023-02-22T12:00:14;12.30;;;9.43;;
14251;SDS011;7210;51.502;10.722;2023-02-22T12:06:14;11.23;;;9.43;;
14251;SDS011;7210;51.502;10.722;2023-02-22T12:09:02;11.10;;;9.43;;
14251;SDS011;7210;51.502;10.722;2023-02-22T12:11:41;10.23;;;8.93;;
14251;SDS011;7210;51.502;10.722;2023-02-22T12:14:29;12.13;;;9.60;;
14251;SDS011;7210;51.502;10.722;2023-02-22T12:17:16;11.57;;;8.50;;
14251;SDS011;7210;51.502;10.722;2023-02-22T12:19:56;11.03;;;9.20;;
14251;SDS011;7210;51.502;10.722;2023-02-22T12:22:37;12.03;;;9.53;;
14251;SDS011;7210;51.502;10.722;2023-02-22T12:25:17;10.80;;;8.87;;
14251;SDS011;7210;51.502;10.722;2023-02-22T12:27:50;13.10;;;9.20;;
14251;SDS011;7210;51.502;10.722;2023-02-22T12:30:29;10.53;;;9.10;;
14251;SDS011;7210;51.502;10.722;2023-02-22T12:33:02;10.27;;;8.80;;
14251;SDS011;7210;51.502;10.722;2023-02-22T12:35:41;11.60;;;8.70;;
14251;SDS011;7210;51.502;10.722;2023-02-22T12:38:19;11.90;;;9.10;;
14251;SDS011;7210;51.502;10.722;2023-02-22T12:40:53;9.90;;;8.47;;
14251;SDS011;7210;51.502;10.722;2023-02-22T12:43:28;9.57;;;8.47;;
14251;SDS011;7210;51.502;10.722;2023-02-22T12:46:07;10.80;;;8.83;;
14251;SDS011;7210;51.502;10.722;2023-02-22T12:48:41;9.97;;;8.97;;
14251;SDS011;7210;51.502;10.722;2023-02-22T12:51:22;10.87;;;8.93;;
14251;SDS011;7210;51.502;10.722;2023-02-22T12:53:58;10.77;;;9.17;;
14251;SDS011;7210;51.502;10.722;2023-02-22T12:56:39;9.80;;;8.53;;
14251;SDS011;7210;51.502;10.722;2023-02-22T12:59:21;10.80;;;8.73;;
14251;SDS011;7210;51.502;10.722;2023-02-22T13:01:58;9.30;;;8.23;;
14251;SDS011;7210;51.502;10.722;2023-02-22T13:04:40;10.60;;;8.63;;
14251;SDS011;7210;51.502;10.722;2023-02-22T13:07:14;9.47;;;8.50;;
14251;SDS011;7210;51.502;10.722;2023-02-22T13:13:18;10.40;;;8.37;;
14251;SDS011;7210;51.502;10.722;2023-02-22T13:15:59;11.33;;;8.80;;
14251;SDS011;7210;51.502;10.722;2023-02-22T13:18:41;9.63;;;8.60;;
14251;SDS011;7210;51.502;10.722;2023-02-22T13:21:18;9.87;;;8.40;;
14251;SDS011;7210;51.502;10.722;2023-02-22T13:23:57;9.13;;;8.23;;
14251;SDS011;7210;51.502;10.722;2023-02-22T13:26:33;9.57;;;8.67;;
14251;SDS011;7210;51.502;10.722;2023-02-22T13:29:16;9.67;;;8.20;;
14251;SDS011;7210;51.502;10.722;2023-02-22T13:31:54;9.57;;;8.57;;
14251;SDS011;7210;51.502;10.722;2023-02-22T13:34:49;9.03;;;8.13;;
14251;SDS011;7210;51.502;10.722;2023-02-22T13:40:48;9.23;;;8.23;;
14251;SDS011;7210;51.502;10.722;2023-02-22T13:43:58;8.60;;;7.67;;
14251;SDS011;7210;51.502;10.722;2023-02-22T13:47:02;9.30;;;7.93;;
14251;SDS011;7210;51.502;10.722;2023-02-22T13:53:02;8.83;;;7.97;;
14251;SDS011;7210;51.502;10.722;2023-02-22T13:55:38;8.53;;;7.63;;
14251;SDS011;7210;51.502;10.722;2023-02-22T13:58:10;9.23;;;8.23;;
14251;SDS011;7210;51.502;10.722;2023-02-22T14:00:40;9.40;;;8.40;;
14251;SDS011;7210;51.502;10.722;2023-02-22T14:06:09;7.30;;;6.40;;
14251;SDS011;7210;51.502;10.722;2023-02-22T14:09:06;7.47;;;5.53;;
14251;SDS011;7210;51.502;10.722;2023-02-22T14:14:13;8.67;;;7.60;;
14251;SDS011;7210;51.502;10.722;2023-02-22T14:16:43;9.93;;;7.30;;
14251;SDS011;7210;51.502;10.722;2023-02-22T14:19:31;8.53;;;7.60;;
14251;SDS011;7210;51.502;10.722;2023-02-22T14:21:59;10.33;;;7.27;;
14251;SDS011;7210;51.502;10.722;2023-02-22T14:24:28;9.13;;;7.90;;
14251;SDS011;7210;51.502;10.722;2023-02-22T14:27:12;9.33;;;6.97;;
14251;SDS011;7210;51.502;10.722;2023-02-22T14:29:48;7.83;;;6.53;;
14251;SDS011;7210;51.502;10.722;2023-02-22T14:32:18;7.37;;;6.60;;
14251;SDS011;7210;51.502;10.722;2023-02-22T14:34:55;8.90;;;6.50;;
14251;SDS011;7210;51.502;10.722;2023-02-22T14:37:26;7.43;;;6.40;;
14251;SDS011;7210;51.502;10.722;2023-02-22T14:39:58;9.73;;;7.23;;
14251;SDS011;7210;51.502;10.722;2023-02-22T14:42:37;8.60;;;7.70;;
14251;SDS011;7210;51.502;10.722;2023-02-22T14:45:14;10.67;;;8.17;;
14251;SDS011;7210;51.502;10.722;2023-02-22T14:48:12;10.10;;;7.70;;
14251;SDS011;7210;51.502;10.722;2023-02-22T14:50:50;10.47;;;8.23;;
14251;SDS011;7210;51.502;10.722;2023-02-22T14:53:24;8.33;;;7.43;;
14251;SDS011;7210;51.502;10.722;2023-02-22T14:56:02;10.13;;;8.73;;
14251;SDS011;7210;51.502;10.722;2023-02-22T14:58:36;9.33;;;8.27;;
14251;SDS011;7210;51.502;10.722;2023-02-22T15:01:21;11.17;;;8.93;;
14251;SDS011;7210;51.502;10.722;2023-02-22T15:03:51;11.00;;;9.20;;
14251;SDS011;7210;51.502;10.722;2023-02-22T15:06:28;9.93;;;8.70;;
14251;SDS011;7210;51.502;10.722;2023-02-22T15:09:04;11.43;;;9.50;;
14251;SDS011;7210;51.502;10.722;2023-02-22T15:11:36;11.20;;;9.60;;
14251;SDS011;7210;51.502;10.722;2023-02-22T15:14:11;10.30;;;9.07;;
14251;SDS011;7210;51.502;10.722;2023-02-22T15:16:46;12.00;;;9.60;;
14251;SDS011;7210;51.502;10.722;2023-02-22T15:19:19;10.27;;;8.87;;
14251;SDS011;7210;51.502;10.722;2023-02-22T15:21:52;13.30;;;10.43;;
14251;SDS011;7210;51.502;10.722;2023-02-22T15:24:23;11.60;;;9.67;;
14251;SDS011;7210;51.502;10.722;2023-02-22T15:26:54;12.57;;;9.83;;
14251;SDS011;7210;51.502;10.722;2023-02-22T15:29:31;11.50;;;9.13;;
14251;SDS011;7210;51.502;10.722;2023-02-22T15:32:11;10.20;;;9.10;;
14251;SDS011;7210;51.502;10.722;2023-02-22T15:34:46;10.93;;;8.97;;
14251;SDS011;7210;51.502;10.722;2023-02-22T15:37:18;10.47;;;9.43;;
14251;SDS011;7210;51.502;10.722;2023-02-22T15:39:49;11.00;;;9.50;;
14251;SDS011;7210;51.502;10.722;2023-02-22T15:42:23;12.77;;;9.90;;
14251;SDS011;7210;51.502;10.722;2023-02-22T15:44:54;13.37;;;10.90;;